sensor_id;sensor_type;location;lat;lon;timestamp;temperature;humidity
2621;DHT22;1320;48.128;11.592;2023-04-03T00:01:30;4.80;99.90
2621;DHT22;1320;48.128;11.592;2023-04-03T00:03:56;4.80;99.90
2621;DHT22;1320;48.128;11.592;2023-04-03T00:06:22;4.80;99.90
2621;DHT22;1320;48.128;11.592;2023-04-03T00:08:48;4.80;99.90
2621;DHT22;1320;48.128;11.592;2023-04-03T00:11:15;4.80;99.90
2621;DHT22;1320;48.128;11.592;2023-04-03T00:13:41;4.80;99.90
2621;DHT22;1320;48.128;11.592;2023-04-03T00:16:08;4.70;99.90
2621;DHT22;1320;48.128;11.592;2023-04-03T00:18:35;4.70;99.90
2621;DHT22;1320;48.128;11.592;2023-04-03T00:21:01;4.70;99.90
2621;DHT22;1320;48.128;11.592;2023-04-03T00:23:26;4.70;99.90
2621;DHT22;1320;48.128;11.592;2023-04-03T00:25:52;4.80;99.90
2621;DHT22;1320;48.128;11.592;2023-04-03T00:28:19;4.80;99.90
2621;DHT22;1320;48.128;11.592;2023-04-03T00:30:44;4.80;99.90
2621;DHT22;1320;48.128;11.592;2023-04-03T00:33:13;4.80;99.90
2621;DHT22;1320;48.128;11.592;2023-04-03T00:35:39;4.80;99.90
2621;DHT22;1320;48.128;11.592;2023-04-03T00:38:05;4.80;99.90
2621;DHT22;1320;48.128;11.592;2023-04-03T00:40:36;4.70;99.90
2621;DHT22;1320;48.128;11.592;2023-04-03T00:43:10;4.70;99.90
2621;DHT22;1320;48.128;11.592;2023-04-03T00:45:42;4.60;99.90
2621;DHT22;1320;48.128;11.592;2023-04-03T00:48:15;4.60;99.90
2621;DHT22;1320;48.128;11.592;2023-04-03T00:50:43;4.60;99.90
2621;DHT22;1320;48.128;11.592;2023-04-03T00:53:14;4.60;99.90
2621;DHT22;1320;48.128;11.592;2023-04-03T00:55:42;4.60;99.90
2621;DHT22;1320;48.128;11.592;2023-04-03T00:58:09;4.60;99.90
2621;DHT22;1320;48.128;11.592;2023-04-03T01:00:38;4.70;99.90
2621;DHT22;1320;48.128;11.592;2023-04-03T01:03:04;4.70;99.90
2621;DHT22;1320;48.128;11.592;2023-04-03T01:05:30;4.70;99.90
2621;DHT22;1320;48.128;11.592;2023-04-03T01:07:56;4.70;99.90
2621;DHT22;1320;48.128;11.592;2023-04-03T01:10:23;4.70;99.90
2621;DHT22;1320;48.128;11.592;2023-04-03T01:12:50;4.70;99.90
2621;DHT22;1320;48.128;11.592;2023-04-03T01:15:25;4.70;99.90
2621;DHT22;1320;48.128;11.592;2023-04-03T01:18:01;4.70;99.90
2621;DHT22;1320;48.128;11.592;2023-04-03T01:25:52;4.70;99.90
2621;DHT22;1320;48.128;11.592;2023-04-03T01:28:28;4.80;99.90
2621;DHT22;1320;48.128;11.592;2023-04-03T01:33:39;4.80;99.90
2621;DHT22;1320;48.128;11.592;2023-04-03T01:36:05;4.80;99.90
2621;DHT22;1320;48.128;11.592;2023-04-03T01:38:31;4.80;99.90
2621;DHT22;1320;48.128;11.592;2023-04-03T01:40:57;4.80;99.90
2621;DHT22;1320;48.128;11.592;2023-04-03T01:43:22;4.90;99.90
2621;DHT22;1320;48.128;11.592;2023-04-03T01:45:48;4.90;99.90
2621;DHT22;1320;48.128;11.592;2023-04-03T01:48:15;4.90;99.90
2621;DHT22;1320;48.128;11.592;2023-04-03T01:50:41;4.80;99.90
2621;DHT22;1320;48.128;11.592;2023-04-03T01:53:07;4.80;99.90
2621;DHT22;1320;48.128;11.592;2023-04-03T01:55:33;4.80;99.90
2621;DHT22;1320;48.128;11.592;2023-04-03T01:57:59;4.80;99.90
2621;DHT22;1320;48.128;11.592;2023-04-03T02:00:24;4.80;99.90
2621;DHT22;1320;48.128;11.592;2023-04-03T02:02:50;4.80;99.90
2621;DHT22;1320;48.128;11.592;2023-04-03T02:05:16;4.80;99.90
2621;DHT22;1320;48.128;11.592;2023-04-03T02:07:41;4.80;99.90
2621;DHT22;1320;48.128;11.592;2023-04-03T02:10:07;4.80;99.90
2621;DHT22;1320;48.128;11.592;2023-04-03T02:12:33;4.80;99.90
2621;DHT22;1320;48.128;11.592;2023-04-03T02:14:59;4.80;99.90
2621;DHT22;1320;48.128;11.592;2023-04-03T02:17:24;4.90;99.90
2621;DHT22;1320;48.128;11.592;2023-04-03T02:19:50;4.90;99.90
2621;DHT22;1320;48.128;11.592;2023-04-03T02:22:16;4.90;99.90
2621;DHT22;1320;48.128;11.592;2023-04-03T02:28:04;4.90;99.90
2621;DHT22;1320;48.128;11.592;2023-04-03T02:30:30;4.90;99.90
2621;DHT22;1320;48.128;11.592;2023-04-03T02:32:55;4.90;99.90
2621;DHT22;1320;48.128;11.592;2023-04-03T02:35:21;4.80;99.90
2621;DHT22;1320;48.128;11.592;2023-04-03T02:37:47;4.90;99.90
2621;DHT22;1320;48.128;11.592;2023-04-03T02:40:13;4.80;99.90
2621;DHT22;1320;48.128;11.592;2023-04-03T02:42:38;4.90;99.90
2621;DHT22;1320;48.128;11.592;2023-04-03T02:45:04;4.90;99.90
2621;DHT22;1320;48.128;11.592;2023-04-03T02:47:30;4.90;99.90
2621;DHT22;1320;48.128;11.592;2023-04-03T02:49:56;4.90;99.90
2621;DHT22;1320;48.128;11.592;2023-04-03T02:52:22;4.90;99.90
2621;DHT22;1320;48.128;11.592;2023-04-03T02:54:48;5.00;99.90
2621;DHT22;1320;48.128;11.592;2023-04-03T02:57:13;5.00;99.90
2621;DHT22;1320;48.128;11.592;2023-04-03T02:59:39;5.00;99.90
2621;DHT22;1320;48.128;11.592;2023-04-03T03:02:07;5.00;99.90
2621;DHT22;1320;48.128;11.592;2023-04-03T03:04:33;5.00;99.90
2621;DHT22;1320;48.128;11.592;2023-04-03T03:06:59;5.10;99.90
2621;DHT22;1320;48.128;11.592;2023-04-03T03:09:24;5.10;99.90
2621;DHT22;1320;48.128;11.592;2023-04-03T03:11:52;5.10;99.90
2621;DHT22;1320;48.128;11.592;2023-04-03T03:14:18;5.10;99.90
2621;DHT22;1320;48.128;11.592;2023-04-03T03:16:44;5.10;99.90
2621;DHT22;1320;48.128;11.592;2023-04-03T03:19:09;5.10;99.90
2621;DHT22;1320;48.128;11.592;2023-04-03T03:21:35;5.10;99.90
2621;DHT22;1320;48.128;11.592;2023-04-03T03:24:01;5.10;99.90
2621;DHT22;1320;48.128;11.592;2023-04-03T03:26:26;5.20;99.90
2621;DHT22;1320;48.128;11.592;2023-04-03T03:28:52;5.20;99.90
2621;DHT22;1320;48.128;11.592;2023-04-03T03:31:18;5.20;99.90
2621;DHT22;1320;48.128;11.592;2023-04-03T03:33:43;5.20;99.90
2621;DHT22;1320;48.128;11.592;2023-04-03T03:36:09;5.20;99.90
2621;DHT22;1320;48.128;11.592;2023-04-03T03:38:36;5.20;99.90
2621;DHT22;1320;48.128;11.592;2023-04-03T03:41:02;5.10;99.90
2621;DHT22;1320;48.128;11.592;2023-04-03T03:43:28;5.10;99.90
2621;DHT22;1320;48.128;11.592;2023-04-03T03:45:54;5.10;99.90
2621;DHT22;1320;48.128;11.592;2023-04-03T03:48:20;5.10;99.90
2621;DHT22;1320;48.128;11.592;2023-04-03T03:50:47;5.10;99.90
2621;DHT22;1320;48.128;11.592;2023-04-03T03:53:13;5.10;99.90
2621;DHT22;1320;48.128;11.592;2023-04-03T03:55:38;5.00;99.90
2621;DHT22;1320;48.128;11.592;2023-04-03T03:58:04;5.00;99.90
2621;DHT22;1320;48.128;11.592;2023-04-03T04:00:30;5.00;99.90
2621;DHT22;1320;48.128;11.592;2023-04-03T04:02:56;5.00;99.90
2621;DHT22;1320;48.128;11.592;2023-04-03T04:05:22;5.00;99.90
2621;DHT22;1320;48.128;11.592;2023-04-03T04:07:48;5.00;99.90
2621;DHT22;1320;48.128;11.592;2023-04-03T04:10:14;5.00;99.90
2621;DHT22;1320;48.128;11.592;2023-04-03T04:12:39;5.00;99.90
2621;DHT22;1320;48.128;11.592;2023-04-03T04:15:05;5.00;99.90
2621;DHT22;1320;48.128;11.592;2023-04-03T04:17:31;5.00;99.90
2621;DHT22;1320;48.128;11.592;2023-04-03T04:19:57;5.00;99.90
2621;DHT22;1320;48.128;11.592;2023-04-03T04:22:23;5.00;99.90
2621;DHT22;1320;48.128;11.592;2023-04-03T04:24:48;5.00;99.90
2621;DHT22;1320;48.128;11.592;2023-04-03T04:27:14;4.90;99.90
2621;DHT22;1320;48.128;11.592;2023-04-03T04:29:41;4.90;99.90
2621;DHT22;1320;48.128;11.592;2023-04-03T04:32:07;4.90;99.90
2621;DHT22;1320;48.128;11.592;2023-04-03T04:34:34;5.00;99.90
2621;DHT22;1320;48.128;11.592;2023-04-03T04:36:59;5.00;99.90
2621;DHT22;1320;48.128;11.592;2023-04-03T04:39:25;5.00;99.90
2621;DHT22;1320;48.128;11.592;2023-04-03T04:41:51;5.00;99.90
2621;DHT22;1320;48.128;11.592;2023-04-03T04:44:17;5.10;99.90
2621;DHT22;1320;48.128;11.592;2023-04-03T04:46:42;5.10;99.90
2621;DHT22;1320;48.128;11.592;2023-04-03T04:49:08;5.10;99.90
2621;DHT22;1320;48.128;11.592;2023-04-03T04:51:34;5.10;99.90
2621;DHT22;1320;48.128;11.592;2023-04-03T04:53:59;5.10;99.90
2621;DHT22;1320;48.128;11.592;2023-04-03T04:56:25;5.10;99.90
2621;DHT22;1320;48.128;11.592;2023-04-03T04:58:51;5.10;99.90
2621;DHT22;1320;48.128;11.592;2023-04-03T05:01:17;5.10;99.90
2621;DHT22;1320;48.128;11.592;2023-04-03T05:03:43;5.00;99.90
2621;DHT22;1320;48.128;11.592;2023-04-03T05:06:10;5.10;99.90
2621;DHT22;1320;48.128;11.592;2023-04-03T05:08:35;5.10;99.90
2621;DHT22;1320;48.128;11.592;2023-04-03T05:11:01;5.10;99.90
2621;DHT22;1320;48.128;11.592;2023-04-03T05:13:27;5.10;99.90
2621;DHT22;1320;48.128;11.592;2023-04-03T05:15:52;5.10;99.90
2621;DHT22;1320;48.128;11.592;2023-04-03T05:18:18;5.10;99.90
2621;DHT22;1320;48.128;11.592;2023-04-03T05:20:44;5.10;99.90
2621;DHT22;1320;48.128;11.592;2023-04-03T05:23:10;5.10;99.90
2621;DHT22;1320;48.128;11.592;2023-04-03T05:25:39;5.10;99.90
2621;DHT22;1320;48.128;11.592;2023-04-03T05:28:05;5.10;99.90
2621;DHT22;1320;48.128;11.592;2023-04-03T05:30:31;5.10;99.90
2621;DHT22;1320;48.128;11.592;2023-04-03T05:32:58;5.20;99.90
2621;DHT22;1320;48.128;11.592;2023-04-03T05:35:25;5.20;99.90
2621;DHT22;1320;48.128;11.592;2023-04-03T05:37:51;5.30;99.90
2621;DHT22;1320;48.128;11.592;2023-04-03T05:40:16;5.30;99.90
2621;DHT22;1320;48.128;11.592;2023-04-03T05:42:43;5.30;99.90
2621;DHT22;1320;48.128;11.592;2023-04-03T05:45:09;5.40;99.90
2621;DHT22;1320;48.128;11.592;2023-04-03T05:47:35;5.30;99.90
2621;DHT22;1320;48.128;11.592;2023-04-03T05:50:01;5.40;99.90
2621;DHT22;1320;48.128;11.592;2023-04-03T05:52:29;5.40;99.90
2621;DHT22;1320;48.128;11.592;2023-04-03T05:54:56;5.40;99.90
2621;DHT22;1320;48.128;11.592;2023-04-03T05:57:22;5.30;99.90
2621;DHT22;1320;48.128;11.592;2023-04-03T05:59:48;5.40;99.90
2621;DHT22;1320;48.128;11.592;2023-04-03T06:05:36;5.40;99.90
2621;DHT22;1320;48.128;11.592;2023-04-03T06:08:02;5.50;99.90
2621;DHT22;1320;48.128;11.592;2023-04-03T06:10:28;5.60;99.90
2621;DHT22;1320;48.128;11.592;2023-04-03T06:12:54;5.60;99.90
2621;DHT22;1320;48.128;11.592;2023-04-03T06:15:20;5.60;99.90
2621;DHT22;1320;48.128;11.592;2023-04-03T06:17:46;5.70;99.90
2621;DHT22;1320;48.128;11.592;2023-04-03T06:20:12;5.70;99.90
2621;DHT22;1320;48.128;11.592;2023-04-03T06:22:38;5.70;99.90
2621;DHT22;1320;48.128;11.592;2023-04-03T06:25:05;5.80;99.90
2621;DHT22;1320;48.128;11.592;2023-04-03T06:27:31;5.80;99.90
2621;DHT22;1320;48.128;11.592;2023-04-03T06:29:57;5.80;99.90
2621;DHT22;1320;48.128;11.592;2023-04-03T06:32:22;5.80;99.90
2621;DHT22;1320;48.128;11.592;2023-04-03T06:34:48;5.80;99.90
2621;DHT22;1320;48.128;11.592;2023-04-03T06:37:19;5.80;99.90
2621;DHT22;1320;48.128;11.592;2023-04-03T06:39:46;5.90;99.90
2621;DHT22;1320;48.128;11.592;2023-04-03T06:42:11;6.00;99.90
2621;DHT22;1320;48.128;11.592;2023-04-03T06:44:37;6.00;99.90
2621;DHT22;1320;48.128;11.592;2023-04-03T06:47:03;6.00;99.90
2621;DHT22;1320;48.128;11.592;2023-04-03T06:49:29;6.10;99.90
2621;DHT22;1320;48.128;11.592;2023-04-03T06:51:55;6.10;99.90
2621;DHT22;1320;48.128;11.592;2023-04-03T06:54:22;6.20;99.90
2621;DHT22;1320;48.128;11.592;2023-04-03T06:56:48;6.20;99.90
2621;DHT22;1320;48.128;11.592;2023-04-03T06:59:13;6.20;99.90
2621;DHT22;1320;48.128;11.592;2023-04-03T07:01:40;6.20;99.90
2621;DHT22;1320;48.128;11.592;2023-04-03T07:04:07;6.20;99.90
2621;DHT22;1320;48.128;11.592;2023-04-03T07:06:33;6.20;99.90
2621;DHT22;1320;48.128;11.592;2023-04-03T07:09:00;6.20;99.90
2621;DHT22;1320;48.128;11.592;2023-04-03T07:11:26;6.20;99.90
2621;DHT22;1320;48.128;11.592;2023-04-03T07:13:53;6.20;99.90
2621;DHT22;1320;48.128;11.592;2023-04-03T07:16:19;6.20;99.90
2621;DHT22;1320;48.128;11.592;2023-04-03T07:18:46;6.20;99.90
2621;DHT22;1320;48.128;11.592;2023-04-03T07:21:12;6.30;99.90
2621;DHT22;1320;48.128;11.592;2023-04-03T07:23:38;6.30;99.90
2621;DHT22;1320;48.128;11.592;2023-04-03T07:26:04;6.30;99.90
2621;DHT22;1320;48.128;11.592;2023-04-03T07:28:30;6.40;99.90
2621;DHT22;1320;48.128;11.592;2023-04-03T07:33:26;6.50;99.90
2621;DHT22;1320;48.128;11.592;2023-04-03T07:35:52;6.60;99.90
2621;DHT22;1320;48.128;11.592;2023-04-03T07:38:18;6.60;99.90
2621;DHT22;1320;48.128;11.592;2023-04-03T07:40:48;6.60;99.90
2621;DHT22;1320;48.128;11.592;2023-04-03T07:43:15;6.70;99.90
2621;DHT22;1320;48.128;11.592;2023-04-03T07:45:41;6.70;99.90
2621;DHT22;1320;48.128;11.592;2023-04-03T07:48:09;6.70;99.90
2621;DHT22;1320;48.128;11.592;2023-04-03T07:50:35;6.70;99.90
2621;DHT22;1320;48.128;11.592;2023-04-03T07:53:02;6.70;99.90
2621;DHT22;1320;48.128;11.592;2023-04-03T07:55:28;6.70;99.90
2621;DHT22;1320;48.128;11.592;2023-04-03T07:57:54;6.80;99.90
2621;DHT22;1320;48.128;11.592;2023-04-03T08:00:20;6.80;99.90
2621;DHT22;1320;48.128;11.592;2023-04-03T08:02:46;6.70;99.90
2621;DHT22;1320;48.128;11.592;2023-04-03T08:05:19;6.80;99.90
2621;DHT22;1320;48.128;11.592;2023-04-03T08:07:46;6.80;99.90
2621;DHT22;1320;48.128;11.592;2023-04-03T08:10:12;6.70;99.90
2621;DHT22;1320;48.128;11.592;2023-04-03T08:12:38;6.60;99.90
2621;DHT22;1320;48.128;11.592;2023-04-03T08:15:04;6.60;99.90
2621;DHT22;1320;48.128;11.592;2023-04-03T08:17:30;6.60;99.90
2621;DHT22;1320;48.128;11.592;2023-04-03T08:19:56;6.60;99.90
2621;DHT22;1320;48.128;11.592;2023-04-03T08:22:21;6.60;99.90
2621;DHT22;1320;48.128;11.592;2023-04-03T08:24:47;6.50;99.90
2621;DHT22;1320;48.128;11.592;2023-04-03T08:27:13;6.60;99.90
2621;DHT22;1320;48.128;11.592;2023-04-03T08:29:38;6.60;99.90
2621;DHT22;1320;48.128;11.592;2023-04-03T08:32:04;6.60;99.90
2621;DHT22;1320;48.128;11.592;2023-04-03T08:34:31;6.70;99.90
2621;DHT22;1320;48.128;11.592;2023-04-03T08:37:02;6.60;99.90
2621;DHT22;1320;48.128;11.592;2023-04-03T08:39:28;6.70;99.90
2621;DHT22;1320;48.128;11.592;2023-04-03T08:41:58;6.80;99.90
2621;DHT22;1320;48.128;11.592;2023-04-03T08:44:46;6.90;99.90
2621;DHT22;1320;48.128;11.592;2023-04-03T08:50:02;6.90;99.90
2621;DHT22;1320;48.128;11.592;2023-04-03T08:52:46;6.90;99.90
2621;DHT22;1320;48.128;11.592;2023-04-03T08:55:22;6.90;99.90
2621;DHT22;1320;48.128;11.592;2023-04-03T08:57:50;6.90;99.90
2621;DHT22;1320;48.128;11.592;2023-04-03T09:00:21;6.90;99.90
2621;DHT22;1320;48.128;11.592;2023-04-03T09:02:50;6.90;99.90
2621;DHT22;1320;48.128;11.592;2023-04-03T09:10:59;7.10;99.90
2621;DHT22;1320;48.128;11.592;2023-04-03T09:13:56;7.10;99.90
2621;DHT22;1320;48.128;11.592;2023-04-03T09:19:22;7.20;99.90
2621;DHT22;1320;48.128;11.592;2023-04-03T09:21:49;7.20;99.90
2621;DHT22;1320;48.128;11.592;2023-04-03T09:24:16;7.30;99.90
2621;DHT22;1320;48.128;11.592;2023-04-03T09:26:52;7.40;99.90
2621;DHT22;1320;48.128;11.592;2023-04-03T09:29:22;7.40;99.90
2621;DHT22;1320;48.128;11.592;2023-04-03T09:31:51;7.40;99.90
2621;DHT22;1320;48.128;11.592;2023-04-03T09:37:43;7.50;99.90
2621;DHT22;1320;48.128;11.592;2023-04-03T09:40:30;7.50;99.90
2621;DHT22;1320;48.128;11.592;2023-04-03T09:42:59;7.50;99.90
2621;DHT22;1320;48.128;11.592;2023-04-03T09:45:28;7.60;99.90
2621;DHT22;1320;48.128;11.592;2023-04-03T09:48:19;7.60;99.90
2621;DHT22;1320;48.128;11.592;2023-04-03T09:53:32;7.60;99.90
2621;DHT22;1320;48.128;11.592;2023-04-03T09:55:59;7.50;99.90
2621;DHT22;1320;48.128;11.592;2023-04-03T09:58:26;7.50;99.90
2621;DHT22;1320;48.128;11.592;2023-04-03T10:01:00;7.60;99.90
2621;DHT22;1320;48.128;11.592;2023-04-03T10:03:33;7.70;99.90
2621;DHT22;1320;48.128;11.592;2023-04-03T10:06:01;7.70;99.90
2621;DHT22;1320;48.128;11.592;2023-04-03T10:08:33;7.70;99.90
2621;DHT22;1320;48.128;11.592;2023-04-03T10:11:14;7.70;99.90
2621;DHT22;1320;48.128;11.592;2023-04-03T10:13:50;7.80;99.90
2621;DHT22;1320;48.128;11.592;2023-04-03T10:16:20;7.90;99.80
2621;DHT22;1320;48.128;11.592;2023-04-03T10:31:59;7.40;99.90
2621;DHT22;1320;48.128;11.592;2023-04-03T10:34:45;7.30;99.90
2621;DHT22;1320;48.128;11.592;2023-04-03T10:37:24;7.20;99.90
2621;DHT22;1320;48.128;11.592;2023-04-03T10:43:08;7.10;99.90
2621;DHT22;1320;48.128;11.592;2023-04-03T10:56:39;6.70;99.90
2621;DHT22;1320;48.128;11.592;2023-04-03T10:59:34;6.60;99.90
2621;DHT22;1320;48.128;11.592;2023-04-03T11:02:24;6.50;99.90
2621;DHT22;1320;48.128;11.592;2023-04-03T11:04:55;6.30;99.90
2621;DHT22;1320;48.128;11.592;2023-04-03T11:07:43;6.20;99.90
2621;DHT22;1320;48.128;11.592;2023-04-03T11:10:15;6.20;99.90
2621;DHT22;1320;48.128;11.592;2023-04-03T11:12:48;6.20;99.90
2621;DHT22;1320;48.128;11.592;2023-04-03T11:15:29;6.20;99.90
2621;DHT22;1320;48.128;11.592;2023-04-03T11:18:06;6.30;99.90
2621;DHT22;1320;48.128;11.592;2023-04-03T11:20:35;6.40;99.90
2621;DHT22;1320;48.128;11.592;2023-04-03T11:23:22;6.60;99.90
2621;DHT22;1320;48.128;11.592;2023-04-03T11:25:53;6.70;99.90
2621;DHT22;1320;48.128;11.592;2023-04-03T11:28:19;6.70;99.90
2621;DHT22;1320;48.128;11.592;2023-04-03T11:36:47;7.00;99.90
2621;DHT22;1320;48.128;11.592;2023-04-03T11:39:30;7.00;99.90
2621;DHT22;1320;48.128;11.592;2023-04-03T11:44:43;7.10;99.90
2621;DHT22;1320;48.128;11.592;2023-04-03T11:47:10;7.10;99.90
2621;DHT22;1320;48.128;11.592;2023-04-03T11:50:00;7.20;99.80
2621;DHT22;1320;48.128;11.592;2023-04-03T12:03:30;7.30;98.90
2621;DHT22;1320;48.128;11.592;2023-04-03T12:21:16;7.80;96.00
2621;DHT22;1320;48.128;11.592;2023-04-03T12:29:54;8.00;95.80
2621;DHT22;1320;48.128;11.592;2023-04-03T12:38:17;8.10;95.00
2621;DHT22;1320;48.128;11.592;2023-04-03T12:46:44;8.30;94.10
2621;DHT22;1320;48.128;11.592;2023-04-03T12:51:54;8.60;93.70
2621;DHT22;1320;48.128;11.592;2023-04-03T12:54:32;8.80;93.20
2621;DHT22;1320;48.128;11.592;2023-04-03T12:57:29;9.00;92.80
2621;DHT22;1320;48.128;11.592;2023-04-03T12:59:55;9.10;92.30
2621;DHT22;1320;48.128;11.592;2023-04-03T13:02:27;9.20;92.00
2621;DHT22;1320;48.128;11.592;2023-04-03T13:04:55;9.30;92.00
2621;DHT22;1320;48.128;11.592;2023-04-03T13:07:30;9.30;91.90
2621;DHT22;1320;48.128;11.592;2023-04-03T13:12:50;9.40;91.70
2621;DHT22;1320;48.128;11.592;2023-04-03T13:15:20;9.30;91.60
2621;DHT22;1320;48.128;11.592;2023-04-03T13:17:46;9.40;91.00
2621;DHT22;1320;48.128;11.592;2023-04-03T13:20:34;9.40;90.20
2621;DHT22;1320;48.128;11.592;2023-04-03T13:23:06;9.30;89.40
2621;DHT22;1320;48.128;11.592;2023-04-03T13:25:36;9.40;90.00
2621;DHT22;1320;48.128;11.592;2023-04-03T13:28:05;9.50;90.20
2621;DHT22;1320;48.128;11.592;2023-04-03T13:30:37;9.80;88.90
2621;DHT22;1320;48.128;11.592;2023-04-03T13:33:20;10.20;88.40
2621;DHT22;1320;48.128;11.592;2023-04-03T13:35:46;10.70;88.20
2621;DHT22;1320;48.128;11.592;2023-04-03T13:40:56;11.00;85.60
2621;DHT22;1320;48.128;11.592;2023-04-03T13:43:25;10.80;83.80
2621;DHT22;1320;48.128;11.592;2023-04-03T13:46:01;10.60;83.40
2621;DHT22;1320;48.128;11.592;2023-04-03T13:48:56;10.40;85.00
2621;DHT22;1320;48.128;11.592;2023-04-03T13:51:25;10.10;85.20
2621;DHT22;1320;48.128;11.592;2023-04-03T13:57:15;9.70;87.10
2621;DHT22;1320;48.128;11.592;2023-04-03T13:59:41;9.50;87.50
2621;DHT22;1320;48.128;11.592;2023-04-03T14:02:23;9.30;87.10
2621;DHT22;1320;48.128;11.592;2023-04-03T14:04:56;9.20;87.40
2621;DHT22;1320;48.128;11.592;2023-04-03T14:07:25;9.10;86.40
2621;DHT22;1320;48.128;11.592;2023-04-03T14:09:52;8.90;86.50
2621;DHT22;1320;48.128;11.592;2023-04-03T14:12:27;9.00;88.10
2621;DHT22;1320;48.128;11.592;2023-04-03T14:14:53;9.20;87.00
2621;DHT22;1320;48.128;11.592;2023-04-03T14:17:23;9.50;87.00
2621;DHT22;1320;48.128;11.592;2023-04-03T14:19:50;9.80;85.50
2621;DHT22;1320;48.128;11.592;2023-04-03T14:22:26;10.10;83.10
2621;DHT22;1320;48.128;11.592;2023-04-03T14:24:52;10.50;81.90
2621;DHT22;1320;48.128;11.592;2023-04-03T14:27:22;10.70;80.30
2621;DHT22;1320;48.128;11.592;2023-04-03T14:29:49;10.90;79.10
2621;DHT22;1320;48.128;11.592;2023-04-03T14:32:17;11.10;78.80
2621;DHT22;1320;48.128;11.592;2023-04-03T14:38:30;11.60;78.80
2621;DHT22;1320;48.128;11.592;2023-04-03T14:40:56;11.80;76.00
2621;DHT22;1320;48.128;11.592;2023-04-03T14:43:22;12.00;75.40
2621;DHT22;1320;48.128;11.592;2023-04-03T14:45:48;12.10;75.10
2621;DHT22;1320;48.128;11.592;2023-04-03T14:48:23;12.10;74.70
2621;DHT22;1320;48.128;11.592;2023-04-03T14:50:50;12.00;74.70
2621;DHT22;1320;48.128;11.592;2023-04-03T14:53:17;11.70;74.30
2621;DHT22;1320;48.128;11.592;2023-04-03T14:55:45;11.50;75.10
2621;DHT22;1320;48.128;11.592;2023-04-03T14:58:19;11.30;75.20
2621;DHT22;1320;48.128;11.592;2023-04-03T15:00:45;11.20;75.30
2621;DHT22;1320;48.128;11.592;2023-04-03T15:03:20;11.00;75.90
2621;DHT22;1320;48.128;11.592;2023-04-03T15:05:47;10.90;76.50
2621;DHT22;1320;48.128;11.592;2023-04-03T15:08:19;10.90;77.30
2621;DHT22;1320;48.128;11.592;2023-04-03T15:10:46;10.70;74.90
2621;DHT22;1320;48.128;11.592;2023-04-03T15:13:12;10.50;74.40
2621;DHT22;1320;48.128;11.592;2023-04-03T15:15:38;10.30;74.20
2621;DHT22;1320;48.128;11.592;2023-04-03T15:18:04;10.20;74.50
2621;DHT22;1320;48.128;11.592;2023-04-03T15:20:30;10.00;74.30
2621;DHT22;1320;48.128;11.592;2023-04-03T15:22:59;9.90;76.00
2621;DHT22;1320;48.128;11.592;2023-04-03T15:25:26;9.70;75.70
2621;DHT22;1320;48.128;11.592;2023-04-03T15:27:54;9.50;75.00
2621;DHT22;1320;48.128;11.592;2023-04-03T15:30:20;9.40;75.40
2621;DHT22;1320;48.128;11.592;2023-04-03T15:32:46;9.20;74.90
2621;DHT22;1320;48.128;11.592;2023-04-03T15:35:12;9.10;75.10
2621;DHT22;1320;48.128;11.592;2023-04-03T15:37:38;9.00;75.60
2621;DHT22;1320;48.128;11.592;2023-04-03T15:40:05;8.90;75.40
2621;DHT22;1320;48.128;11.592;2023-04-03T15:42:31;8.90;75.70
2621;DHT22;1320;48.128;11.592;2023-04-03T15:44:57;8.90;76.50
2621;DHT22;1320;48.128;11.592;2023-04-03T15:47:23;8.90;76.50
2621;DHT22;1320;48.128;11.592;2023-04-03T15:49:49;8.80;75.00
2621;DHT22;1320;48.128;11.592;2023-04-03T15:52:15;8.80;74.80
2621;DHT22;1320;48.128;11.592;2023-04-03T15:54:41;8.70;74.10
2621;DHT22;1320;48.128;11.592;2023-04-03T15:57:06;8.70;73.40
2621;DHT22;1320;48.128;11.592;2023-04-03T15:59:32;8.70;73.80
2621;DHT22;1320;48.128;11.592;2023-04-03T16:01:58;8.70;72.70
2621;DHT22;1320;48.128;11.592;2023-04-03T16:04:24;8.70;71.90
2621;DHT22;1320;48.128;11.592;2023-04-03T16:06:50;8.60;71.90
2621;DHT22;1320;48.128;11.592;2023-04-03T16:09:16;8.60;72.70
2621;DHT22;1320;48.128;11.592;2023-04-03T16:11:42;8.70;73.60
2621;DHT22;1320;48.128;11.592;2023-04-03T16:14:09;8.80;73.70
2621;DHT22;1320;48.128;11.592;2023-04-03T16:16:35;8.80;74.10
2621;DHT22;1320;48.128;11.592;2023-04-03T16:19:01;8.70;74.60
2621;DHT22;1320;48.128;11.592;2023-04-03T16:21:27;8.60;75.20
2621;DHT22;1320;48.128;11.592;2023-04-03T16:23:53;8.60;75.70
2621;DHT22;1320;48.128;11.592;2023-04-03T16:26:19;8.60;75.80
2621;DHT22;1320;48.128;11.592;2023-04-03T16:28:45;8.50;75.70
2621;DHT22;1320;48.128;11.592;2023-04-03T16:31:11;8.40;75.40
2621;DHT22;1320;48.128;11.592;2023-04-03T16:33:37;8.40;75.30
2621;DHT22;1320;48.128;11.592;2023-04-03T16:36:04;8.30;75.80
2621;DHT22;1320;48.128;11.592;2023-04-03T16:38:30;8.20;76.70
2621;DHT22;1320;48.128;11.592;2023-04-03T16:40:55;8.20;77.00
2621;DHT22;1320;48.128;11.592;2023-04-03T16:43:29;8.20;76.30
2621;DHT22;1320;48.128;11.592;2023-04-03T16:45:56;8.20;76.00
2621;DHT22;1320;48.128;11.592;2023-04-03T16:48:21;8.10;76.60
2621;DHT22;1320;48.128;11.592;2023-04-03T16:50:48;8.00;76.00
2621;DHT22;1320;48.128;11.592;2023-04-03T16:53:14;8.00;75.70
2621;DHT22;1320;48.128;11.592;2023-04-03T16:55:40;7.90;76.20
2621;DHT22;1320;48.128;11.592;2023-04-03T16:58:06;7.90;75.90
2621;DHT22;1320;48.128;11.592;2023-04-03T17:00:32;7.90;75.60
2621;DHT22;1320;48.128;11.592;2023-04-03T17:02:59;7.90;76.20
2621;DHT22;1320;48.128;11.592;2023-04-03T17:05:25;7.80;77.00
2621;DHT22;1320;48.128;11.592;2023-04-03T17:07:50;7.70;77.70
2621;DHT22;1320;48.128;11.592;2023-04-03T17:10:16;7.70;78.20
2621;DHT22;1320;48.128;11.592;2023-04-03T17:12:42;7.60;78.30
2621;DHT22;1320;48.128;11.592;2023-04-03T17:15:08;7.60;79.00
2621;DHT22;1320;48.128;11.592;2023-04-03T17:17:34;7.40;79.00
2621;DHT22;1320;48.128;11.592;2023-04-03T17:20:00;7.40;79.60
2621;DHT22;1320;48.128;11.592;2023-04-03T17:22:28;7.40;79.80
2621;DHT22;1320;48.128;11.592;2023-04-03T17:24:53;7.30;80.00
2621;DHT22;1320;48.128;11.592;2023-04-03T17:27:20;7.20;80.50
2621;DHT22;1320;48.128;11.592;2023-04-03T17:29:45;7.20;80.80
2621;DHT22;1320;48.128;11.592;2023-04-03T17:32:11;7.10;81.00
2621;DHT22;1320;48.128;11.592;2023-04-03T17:34:37;7.00;81.50
2621;DHT22;1320;48.128;11.592;2023-04-03T17:37:03;7.00;82.50
2621;DHT22;1320;48.128;11.592;2023-04-03T17:39:29;6.90;82.80
2621;DHT22;1320;48.128;11.592;2023-04-03T17:41:54;6.80;82.70
2621;DHT22;1320;48.128;11.592;2023-04-03T17:44:21;6.80;83.20
2621;DHT22;1320;48.128;11.592;2023-04-03T17:46:46;6.70;83.00
2621;DHT22;1320;48.128;11.592;2023-04-03T17:49:12;6.70;83.20
2621;DHT22;1320;48.128;11.592;2023-04-03T17:51:40;6.60;82.40
2621;DHT22;1320;48.128;11.592;2023-04-03T17:54:06;6.60;82.50
2621;DHT22;1320;48.128;11.592;2023-04-03T17:56:32;6.50;82.20
2621;DHT22;1320;48.128;11.592;2023-04-03T17:58:58;6.50;81.90
2621;DHT22;1320;48.128;11.592;2023-04-03T18:01:26;6.50;82.20
2621;DHT22;1320;48.128;11.592;2023-04-03T18:03:54;6.40;82.10
2621;DHT22;1320;48.128;11.592;2023-04-03T18:06:24;6.40;82.50
2621;DHT22;1320;48.128;11.592;2023-04-03T18:08:53;6.40;82.80
2621;DHT22;1320;48.128;11.592;2023-04-03T18:11:21;6.30;83.10
2621;DHT22;1320;48.128;11.592;2023-04-03T18:13:47;6.30;83.40
2621;DHT22;1320;48.128;11.592;2023-04-03T18:16:13;6.30;84.10